createdAt,value
2023-01-13T00:20:57.251Z,996
2023-01-13T00:50:20.685Z,996
2023-01-13T01:19:41.249Z,995
2023-01-13T01:49:02.135Z,995
2023-01-13T02:18:11.629Z,995
2023-01-13T02:47:22.447Z,995
2023-01-13T03:16:45.242Z,995
2023-01-13T03:46:01.342Z,994
2023-01-13T04:15:15.026Z,994
2023-01-13T04:44:34.980Z,994
2023-01-13T05:13:54.609Z,994
2023-01-13T05:43:08.476Z,994
2023-01-13T06:12:30.011Z,994
2023-01-13T06:41:39.116Z,994
2023-01-13T07:10:51.000Z,994
2023-01-13T07:40:04.771Z,994
2023-01-13T08:09:17.431Z,995
2023-01-13T08:38:26.784Z,996
2023-01-13T09:07:29.638Z,996
2023-01-13T09:36:41.951Z,996
2023-01-13T10:05:43.192Z,996
2023-01-13T10:34:50.099Z,997
2023-01-13T11:03:59.396Z,997
2023-01-13T11:33:03.038Z,998
2023-01-13T12:02:16.228Z,998
2023-01-13T12:31:30.754Z,998
2023-01-13T13:00:34.711Z,998
2023-01-13T13:29:49.634Z,997
2023-01-13T13:59:02.121Z,998
2023-01-13T14:28:02.225Z,998
2023-01-13T14:57:23.324Z,999
2023-01-13T15:26:28.015Z,999
2023-01-13T15:55:34.389Z,999
2023-01-13T16:24:53.056Z,1000
2023-01-13T16:54:02.119Z,1001
2023-01-13T17:23:05.222Z,1001
2023-01-13T17:52:15.490Z,1002
2023-01-13T18:21:29.579Z,1002
2023-01-13T18:50:43.308Z,1003
2023-01-13T19:19:55.255Z,1003
2023-01-13T19:49:13.957Z,1003
2023-01-13T20:18:34.704Z,1003
2023-01-13T20:47:49.985Z,1003
2023-01-13T21:17:15.526Z,1003
2023-01-13T21:46:25.254Z,1003
2023-01-13T22:15:32.501Z,1004
2023-01-13T22:44:51.798Z,1004
2023-01-13T23:14:03.973Z,1004
2023-01-13T23:43:27.413Z,1004
